Thurso, Canada
Current Conditions -  °F | °C
As of 1:00 PM on Wednesday 26 Nov 2014 (Local Time) from CYND Reporting Station
Overcast Overcast  
Wind Chill: 24°   Ceiling: 14000
Heat Index: 30°   Visibility: 15mi
Dew Point: 21°   Wind: 6mph
Humidity: 69%   Direction: 60°ENE
Pressure: 30.19"   Gusts: NA
Location:  45.58°N, 75.23°W
Report Text: CYND 261800Z 06005KT 15SM FEW030 OVC140 M01/M06 A3019 RMK SC2AC6 SLP228
Loading
Personal Weather Stations






























Interactive Weather Map New forecast layout! Learn more

10-Day Weather Forecast

Advertisements
Track Severe Weather on mobile